• Join FlightAware (Why Join?)
  • Login
  • US Flag 
Rudolph Flight #1: Arrived! 
11:51PM EST


 

Airport Tracker/Info


-or-


 

Live Flight TrackerFlight Track Log ✈ AWE3988 ✈ 04-May-2013 ✈ KMHT - KPHL

Flight Track Log - Related Links

Times and Time Zones

All times are in EDT time to prevent confusion due to time zone crossing. See the AWE3988 flight status page for this flight to view local times or setup timezone preferences in your user account.

Time Position Orientation Groundspeed Altitude Reporting Facility
EDT Latitude Longitude Course Direction KTS MPH feet Rate Location/Type
04:10PM 42.8833 -71.4500 216° Southwest 186 214 2,600  Level KA90
04:11PM 42.8883 -71.4908 280° West 223 257 3,900 2,280 Climbing Boston Center
04:12PM 42.9492 -71.8925 279° West  Level FlightAware Approximate
04:12PM 42.8933 -71.5869 274° West 248 285 6,000  Level Boston Center
04:13PM 42.9501 -72.0471 270° West  Level FlightAware Approximate
04:13PM 42.9003 -71.6947 275° West 275 316 8,300  Level Boston Center
04:14PM 42.9500 -72.2018 270° West  Level FlightAware Approximate
04:14PM 42.9072 -71.8081 275° West 301 346 10,700  Level Boston Center
04:15PM 42.9560 -72.3562 273° West  Level FlightAware Approximate
04:15PM 42.9139 -71.9183 275° West 301 346 12,700  Level Boston Center
04:16PM 42.9228 -72.0403 276° West 316 364 15,000 2,040 Climbing Boston Center
04:17PM 42.9294 -72.1622 274° West 321 369 16,800 1,560 Climbing Boston Center
04:18PM 42.9358 -72.2783 274° West 336 387 18,200 1,620 Climbing Boston Center
04:19PM 42.9506 -72.4089 279° West 347 399 20,100 1,800 Climbing Boston Center
04:20PM 42.9608 -72.5450 276° West 361 415 21,800 1,680 Climbing Boston Center
04:21PM 42.9586 -72.6983 269° West 368 423 23,500 1,440 Climbing Boston Center
04:22PM 42.9667 -72.8458 274° West 375 432 24,700 1,080 Climbing Boston Center
04:23PM 42.9764 -72.9964 275° West 391 450 26,000 540 Climbing Boston Center
04:24PM 42.9861 -73.1356 276° West 407 468 26,000  Level Boston Center
04:25PM 42.9867 -73.3425 270° West 418 481 26,000  Level Boston Center
04:26PM 42.9336 -73.4667 240° Southwest 409 471 26,000  Level Boston Center
04:27PM 42.8572 -73.6069 233° Southwest 409 471 26,000  Level Boston Center
04:28PM 42.8019 -73.7078 233° Southwest 414 476 26,000  Level Boston Center
04:29PM 42.7253 -73.8447 233° Southwest 419 482 26,000  Level Boston Center
04:30PM 42.6653 -73.9706 237° Southwest 413 475 26,000  Level Boston Center
04:31PM 42.6050 -74.0958 237° Southwest 408 470 26,000  Level Boston Center
04:32PM 42.5383 -74.2378 238° Southwest 408 470 26,000  Level Boston Center
04:33PM 42.4758 -74.3628 236° Southwest 408 470 26,000  Level Boston Center
04:34PM 42.4175 -74.4733 234° Southwest 408 470 26,000  Level Boston Center
04:35PM 42.3592 -74.5953 237° Southwest 408 470 26,000 -540 Level Boston Center
04:37PM 42.2389 -74.8381 236° Southwest 398 458 24,500 -1,140 Descending New York Center
04:38PM 42.1744 -74.9569 234° Southwest 403 464 22,700 -1,920 Descending New York Center
04:39PM 42.0797 -75.0375 212° Southwest 391 450 20,800 -1,860 Descending New York Center
04:40PM 41.9897 -75.1128 212° Southwest 391 450 19,100 -900 Descending New York Center
04:41PM 41.9017 -75.1850 211° Southwest 384 442 19,000 -720 Descending New York Center
04:42PM 41.8158 -75.2572 212° Southwest 373 429 17,700 -1,740 Descending New York Center
04:43PM 41.7233 -75.3286 210° Southwest 368 423 15,500 -2,160 Descending New York Center
04:44PM 41.6461 -75.3928 212° Southwest 350 403 13,500 -1,500 Descending New York Center
04:45PM 41.5708 -75.4514 210° Southwest 330 380 12,600 -780 Descending New York Center
04:46PM 41.5042 -75.5050 211° Southwest 313 360 12,000 -360 Descending New York Center
04:47PM 41.4353 -75.5608 211° Southwest 301 346 11,900 -60 Descending New York Center
04:48PM 41.3578 -75.6217 211° Southwest 301 346 11,900  Level New York Center
04:49PM 41.2847 -75.6772 210° Southwest 301 346 11,900  Level New York Center
04:50PM 41.2075 -75.6772 180° South 273 314 11,900  Level New York Center
04:51PM 41.1294 -75.6522 166° South 278 320 11,900  Level New York Center
04:52PM 41.0575 -75.6278 166° South 295 339 11,900 -360 Level New York Center
04:53PM 40.9711 -75.5997 166° South 295 339 11,200 -840 Descending New York Center
04:54PM 40.8931 -75.5747 166° South 295 339 10,300 -600 Descending New York Center
04:55PM 40.8253 -75.5536 167° South 295 339 10,000 -180 Descending New York Center
04:56PM 40.7411 -75.5231 165° South 295 339 10,000  Level New York Center
04:57PM 40.6608 -75.4983 167° South 295 339 10,000  Level New York Center
04:58PM 40.5844 -75.4739 166° South 295 339 10,000  Level New York Center
04:59PM 40.5064 -75.4494 167° South 295 339 10,000 -60 Level New York Center
05:00PM 40.4339 -75.4392 174° South 295 339 9,900 -900 Descending New York Center
05:01PM 40.3489 -75.4797 200° South 295 339 8,300 -1,260 Descending New York Center
05:02PM 40.2767 -75.5156 201° Southwest 290 334 7,400 -720 Descending New York Center
05:03PM 40.1928 -75.5233 184° South 290 334 7,000 -720 Descending New York Center
05:04PM 40.1133 -75.5317 185° South 295 339 6,100 -600 Descending New York Center
05:05PM 40.0361 -75.5317 180° South 290 334 5,900 -660 Descending New York Center
05:06PM 39.9639 -75.5133 169° South 278 320 4,800 -1,380 Descending New York Center
05:07PM 39.9094 -75.4661 146° Southeast 249 287 3,200 -1,440 Descending New York Center
05:08PM 39.8572 -75.4167 144° Southeast 238 274 2,000 -960 Descending New York Center
05:09PM 39.8500 -75.3500 98° East 156 180 1,300 -720 Descending Philadelphia TRACON
05:10PM 39.8500 -75.3000 90° East 122 140 600 -720 Descending Philadelphia TRACON